No particular awareness of the weather is required.    There are no Weather-warnings

Οι άλλοι ιστότοποί μου:

SYKIA HOMEWEATHERSTATIONsikeaweather.alinos.eu

SYKIA METEOTEMPLATEsykiameteo.alinos.eu

alinos.eualinos.eu



Αναφορές γειτονικών METAR

   
LGEL - Elefsis (hel-Afb, Greece
Απόσταση από τον σταθμό: Α 77 km
Ενημερώθηκε: 24-06-2019 19:20
Διάσπαρτα νέφη  
Διάσπαρτα νέφη  
   Ανεμος: ΝΝΔ 11.1 km/h
Ανεμος: ΝΝΔ 11.1 km/h
Θερμοκρασία: 32°C
Δείκτης θερμότητας: 32°C
Σημείο Δρόσου: 17°C
Υγρασία: 41%
Βαρόμετρο: 1008 hPa
Νεφώσεις: Διάσπαρτα νέφη
Ορατότητα: More than 10 km
Στοιχεία νεφών: Διάσπαρτα νέφη 2500 ft
LGEL 241620Z 20006KT 9999 FEW025 32/17 Q1008
LGRX - Araxos (civ/Afb), Greece
Απόσταση από τον σταθμό: Δ 110 km
Ενημερώθηκε: 24-06-2019 19:20
Διάσπαρτα νέφη  
Διάσπαρτα νέφη  
   Ανεμος: ΔΝΔ 7.4 km/h
Ανεμος: ΔΝΔ 7.4 km/h
Θερμοκρασία: 28°C
Δείκτης θερμότητας: 30°C
Σημείο Δρόσου: 21°C
Υγρασία: 66%
Βαρόμετρο: 1010 hPa
Νεφώσεις: Διάσπαρτα νέφη
Ορατότητα: More than 10 km
Στοιχεία νεφών: Διάσπαρτα νέφη 3000 ft
LGRX 241620Z 25004KT 9999 FEW030 28/21 Q1010
LGAV - Athens/Elef-Ven, Greece
Απόσταση από τον σταθμό: Α 113 km
Ενημερώθηκε: 24-06-2019 19:20
Αίθριος  
Αίθριος  
   Ανεμος: ΒΒΑ 18.5 km/h
Ανεμος: ΒΒΑ 18.5 km/h
Θερμοκρασία: 30°C
Δείκτης θερμότητας: 31°C
Σημείο Δρόσου: 18°C
Υγρασία: 49%
Βαρόμετρο: 1010 hPa
Ορατότητα: More than 10 km
Στοιχεία νεφών: Αίθριος
LGAV 241620Z 02010KT CAVOK 30/18 Q1010 NOSIG
LGAD - Andravida (civ/A, Greece
Απόσταση από τον σταθμό: Δ 124 km
Ενημερώθηκε: 24-06-2019 19:20
Διάσπαρτα νέφη  
Διάσπαρτα νέφη  
   Ανεμος: Δυτικά 13 km/h
Ανεμος: Δυτικά 13 km/h
Θερμοκρασία: 29°C
Δείκτης θερμότητας: 31°C
Σημείο Δρόσου: 20°C
Υγρασία: 58%
Βαρόμετρο: 1010 hPa
Νεφώσεις: Διάσπαρτα νέφη
Ορατότητα: More than 10 km
Στοιχεία νεφών: Διάσπαρτα νέφη 2000 ft
LGAD 241620Z 28007KT 9999 FEW020 29/20 Q1010
LGKL - Kalamata (hel-Af, Greece
Απόσταση από τον σταθμό: ΝΝΔ 124 km
Ενημερώθηκε: 24-06-2019 19:20
Διάσπαρτα νέφη  
Διάσπαρτα νέφη  
   Ανεμος: ΒΒΑ 20.4 km/h
Ανεμος: ΒΒΑ 20.4 km/h
Θερμοκρασία: 31°C
Δείκτης θερμότητας: 31°C
Σημείο Δρόσου: 17°C
Υγρασία: 43%
Βαρόμετρο: 1009 hPa
Νεφώσεις: Διάσπαρτα νέφη
Ορατότητα: More than 10 km
Στοιχεία νεφών: Διάσπαρτα νέφη 3000 ft
LGKL 241620Z 02011KT 9999 FEW030 31/17 Q1009
LGBL - Nea Anchialos, Greece
Απόσταση από τον σταθμό: Β 129 km
Ενημερώθηκε: 24-06-2019 19:20
Διάσπαρτα νέφη  
Διάσπαρτα νέφη  
   Ανεμος: ΝΑ 20.4 km/h
Ανεμος: ΝΑ 20.4 km/h
Θερμοκρασία: 30°C
Δείκτης θερμότητας: 30°C
Σημείο Δρόσου: 16°C
Υγρασία: 43%
Βαρόμετρο: 1010 hPa
Νεφώσεις: Διάσπαρτα νέφη
Ορατότητα: More than 10 km
Στοιχεία νεφών: Διάσπαρτα νέφη 2500 ft
LGBL 241620Z 13011KT 9999 FEW025TCU 30/16 Q1010

Αρχική γραφή από  Saratoga-weather.org Προσαρμογή στον ιστότοπο από  Weerstation Leuven

Βλέπε επίσης τις ενημερώσεις τού σταθμού μας στα παρακάτω δίκτυα:

European Weather Network

Weather Underground

AWEKAS

Citizen Weather Observer Program (CWOP)

HAMweather, WeatherForYou, PWS Weather

UK Metoffice

Equipment we use:

Μετεωρολογικός σταθμός
Davis Wireless Vantage Pro2

Davis Wireless Vantage Pro2